Ridgewood, New York
Current Conditions -  °F | °C
As of 5:51 PM on Thursday 23 Oct 2014 (Local Time) from KLGA Reporting Station
Broken Clouds Broken Clouds  
Wind Chill: 12°   Ceiling: 3400
Heat Index: 12°   Visibility: 10mi
Dew Point:   Wind: 22mph
Humidity: 77%   Direction: 330°NNW
Pressure: 29.71"   Gusts: 32mph
Location:  40.7°N, 73.9°W
Report Text: KLGA 232151Z 33019G28KT 10SM FEW022 BKN034 BKN039 12/08 A2971 RMK AO2 PK WND 34029/2112 SLP061 T01170078
Loading
Personal Weather Stations






























Interactive Weather Map
Tropical Storm Tracking
New forecast layout! Learn more

10-Day Weather Forecast

Advertisements
Track Severe Weather on mobile